Time;durP1;ratioP1;P1;durP2;ratioP2;P2;SDS_P1;SDS_P2;PMS_P1;PMS_P2;Temp;Humidity;BMP_temperature;BMP_pressure;BME280_temperature;BME280_humidity;BME280_pressure;Samples;Min_cycle;Max_cycle;Signal;HPM_P1;HPM_P2
2021/11/10 00:01:52;;;;;;;1.33;0.52;;;;;;;-1.12;53.92;101257.59;5063079;28;20438;-59
2021/11/10 00:04:18;;;;;;;3.03;0.82;;;;;;;-1.01;53.75;101255.72;5059937;28;20051;-59
2021/11/10 00:06:44;;;;;;;1.83;0.80;;;;;;;-0.89;53.76;101269.66;5070319;28;20086;-59
2021/11/10 00:09:10;;;;;;;1.17;0.80;;;;;;;-0.84;53.78;101257.31;5058047;28;20028;-59
2021/11/10 00:11:35;;;;;;;1.10;0.80;;;;;;;-0.83;53.37;101253.81;5064707;28;20095;-58
2021/11/10 00:14:02;;;;;;;2.70;1.17;;;;;;;-0.70;53.76;101272.09;5063524;28;20060;-60
2021/11/10 00:16:27;;;;;;;3.55;1.10;;;;;;;-0.66;53.37;101276.44;5058595;28;20075;-58
2021/11/10 00:18:55;;;;;;;2.92;1.30;;;;;;;-0.72;52.51;101274.75;5070007;28;20028;-58
2021/11/10 00:21:23;;;;;;;2.50;0.93;;;;;;;-0.77;52.80;101281.81;5059399;28;20035;-58
2021/11/10 00:23:49;;;;;;;1.60;0.73;;;;;;;-0.87;52.85;101279.25;5063700;28;20048;-59
2021/11/10 00:26:15;;;;;;;2.60;0.77;;;;;;;-0.89;52.77;101288.06;5048114;28;20432;-60
2021/11/10 00:28:40;;;;;;;3.05;0.90;;;;;;;-0.92;53.09;101290.72;5056984;28;20021;-58
2021/11/10 00:31:07;;;;;;;1.67;0.90;;;;;;;-0.90;53.23;101288.94;5068915;28;20095;-59
2021/11/10 00:33:32;;;;;;;1.25;0.85;;;;;;;-0.88;52.87;101297.69;5060445;28;20025;-60
2021/11/10 00:35:58;;;;;;;1.00;0.85;;;;;;;-0.86;52.80;101295.91;5062142;28;20025;-59
2021/11/10 00:38:23;;;;;;;0.60;0.60;;;;;;;-0.80;52.50;101297.63;5067428;28;20425;-57
2021/11/10 00:40:49;;;;;;;4.88;1.00;;;;;;;-0.84;52.76;101301.16;5055336;28;20029;-60
2021/11/10 00:43:15;;;;;;;1.05;0.77;;;;;;;-0.87;52.34;101309.94;5045874;28;20075;-59
2021/11/10 00:45:40;;;;;;;0.93;0.70;;;;;;;-0.91;52.79;101306.47;5038271;28;20095;-59
2021/11/10 00:48:07;;;;;;;0.80;0.65;;;;;;;-0.95;52.85;101315.28;5042788;28;20075;-60
2021/11/10 00:50:34;;;;;;;1.33;0.82;;;;;;;-0.97;52.71;101310.91;5057549;28;20028;-59
2021/11/10 00:52:59;;;;;;;1.70;0.70;;;;;;;-0.97;52.85;101308.28;5067950;28;20028;-59
2021/11/10 00:55:25;;;;;;;1.77;0.52;;;;;;;-1.28;53.22;101274.38;5045096;28;20043;-59
2021/11/10 00:57:51;;;;;;;1.13;0.70;;;;;;;-1.03;53.34;101325.84;5044877;28;20032;-58
2021/11/10 01:00:18;;;;;;;1.63;0.77;;;;;;;-1.05;53.05;101318.88;5065057;28;20028;-59
2021/11/10 01:02:45;;;;;;;1.73;1.00;;;;;;;-1.19;52.54;101293.56;5056050;28;20029;-58
2021/11/10 01:05:11;;;;;;;0.90;0.70;;;;;;;-0.93;52.63;101325.78;5064932;28;20037;-58
2021/11/10 01:07:37;;;;;;;1.25;0.77;;;;;;;-0.99;52.78;101323.19;5046233;28;20024;-58
2021/11/10 01:10:05;;;;;;;1.17;0.85;;;;;;;-0.96;53.05;101333.72;5060991;28;20520;-58
2021/11/10 01:12:30;;;;;;;1.17;0.80;;;;;;;-1.07;53.31;101331.16;5068365;28;20535;-55
2021/11/10 01:14:56;;;;;;;1.35;0.98;;;;;;;-1.06;53.02;101332.91;5055682;28;20035;-61
2021/11/10 01:17:22;;;;;;;1.10;0.80;;;;;;;-1.04;53.30;101341.66;5065369;28;20059;-59
2021/11/10 01:19:48;;;;;;;1.05;0.63;;;;;;;-1.07;52.90;101332.03;5060577;28;20055;-59
2021/11/10 01:22:14;;;;;;;2.20;1.00;;;;;;;-1.24;53.34;101320.75;5058232;28;20037;-56
2021/11/10 01:24:40;;;;;;;1.25;0.90;;;;;;;-1.30;53.89;101333.06;5058574;28;20099;-62
2021/11/10 01:27:05;;;;;;;0.95;0.73;;;;;;;-1.43;53.74;101336.69;5033296;28;20032;-59
2021/11/10 01:29:31;;;;;;;1.40;0.90;;;;;;;-1.63;54.63;101324.53;5044099;28;20032;-58
2021/11/10 01:31:57;;;;;;;2.35;1.05;;;;;;;-1.70;55.07;101332.44;5040405;28;20032;-58
2021/11/10 01:34:22;;;;;;;2.75;1.00;;;;;;;-1.77;55.07;101331.59;5041351;28;20041;-59
2021/11/10 01:36:48;;;;;;;3.30;0.77;;;;;;;-1.85;55.61;101329.00;5062167;28;20143;-52
2021/11/10 01:39:14;;;;;;;1.35;0.90;;;;;;;-1.93;56.01;101321.19;5045931;28;20029;-57
2021/11/10 01:41:43;;;;;;;1.45;0.90;;;;;;;-2.21;56.02;101281.06;5038117;28;20025;-57
2021/11/10 01:44:26;;;;;;;1.55;1.00;;;;;;;-1.93;56.00;101336.94;5056406;28;20040;-61
2021/11/10 01:46:54;;;;;;;1.13;0.80;;;;;;;-1.98;56.23;101346.56;5055098;28;20028;-56
2021/11/10 01:49:20;;;;;;;1.92;0.88;;;;;;;-1.97;56.75;101345.69;5065095;28;20025;-60
2021/11/10 01:51:51;;;;;;;1.80;0.88;;;;;;;-1.94;56.41;101345.66;5059210;28;20025;-60
2021/11/10 01:54:19;;;;;;;1.77;0.88;;;;;;;-1.90;56.25;101357.03;5047861;28;20048;-58
2021/11/10 01:56:45;;;;;;;1.08;0.80;;;;;;;-1.82;56.28;101367.53;5064333;28;20032;-57
2021/11/10 01:59:26;;;;;;;2.90;0.70;;;;;;;-1.75;56.16;101364.88;5055533;28;20024;-58
2021/11/10 02:01:52;;;;;;;3.50;0.73;;;;;;;-1.59;55.91;101373.53;5061449;28;20044;-58
2021/11/10 02:04:17;;;;;;;1.13;0.93;;;;;;;-1.57;55.95;101357.75;5040333;28;20591;-58
2021/11/10 02:06:43;;;;;;;3.30;0.80;;;;;;;-1.38;55.17;101374.31;5038850;28;20032;-59
2021/11/10 02:09:08;;;;;;;2.35;1.00;;;;;;;-1.26;55.34;101375.97;5049754;28;20036;-56
2021/11/10 02:11:35;;;;;;;1.42;0.65;;;;;;;-1.19;54.84;101371.56;5063949;28;20465;-58
2021/11/10 02:14:02;;;;;;;1.50;1.02;;;;;;;-1.19;55.00;101380.31;5062072;28;20088;-60
2021/11/10 02:16:28;;;;;;;1.95;0.95;;;;;;;-1.16;54.98;101382.91;5055573;28;20036;-56
2021/11/10 02:18:56;;;;;;;1.10;0.88;;;;;;;-1.11;54.44;101377.63;5067833;28;20377;-57
2021/11/10 02:21:23;;;;;;;0.75;0.73;;;;;;;-1.13;54.45;101361.00;5055538;28;20032;-58
2021/11/10 02:23:49;;;;;;;2.92;0.90;;;;;;;-1.00;54.54;101380.19;5040203;28;20053;-57
2021/11/10 02:26:22;;;;;;;1.70;0.98;;;;;;;-0.98;54.17;101375.78;5038994;28;20041;-60
2021/11/10 02:28:52;;;;;;;1.50;0.85;;;;;;;-0.83;54.73;101382.66;5060879;28;20041;-60
2021/11/10 02:31:18;;;;;;;1.55;0.65;;;;;;;-0.96;54.62;101352.13;5064465;28;20047;-57
2021/11/10 02:33:44;;;;;;;0.90;0.70;;;;;;;-0.81;54.51;101377.41;5041650;28;20154;-59
2021/11/10 02:36:11;;;;;;;1.40;1.02;;;;;;;-0.71;54.26;101392.22;5058903;28;20029;-60
2021/11/10 02:38:37;;;;;;;1.23;0.68;;;;;;;-0.61;54.34;101396.50;5046592;28;20495;-61
2021/11/10 02:41:03;;;;;;;0.95;0.85;;;;;;;-0.58;54.33;101395.59;5067221;28;20388;-60
2021/11/10 02:43:30;;;;;;;2.38;0.77;;;;;;;-0.57;54.36;101401.75;5042599;28;20040;-61
2021/11/10 02:45:56;;;;;;;1.75;1.00;;;;;;;-0.56;53.70;101396.47;5037924;28;20048;-61
2021/11/10 02:48:22;;;;;;;2.28;1.13;;;;;;;-0.54;54.20;101399.94;5058669;28;20039;-60
2021/11/10 02:50:48;;;;;;;3.58;0.80;;;;;;;-0.50;54.32;101401.66;5052017;28;20055;-56
2021/11/10 02:53:14;;;;;;;3.72;1.40;;;;;;;-0.54;54.26;101380.69;5044770;28;20488;-61
2021/11/10 02:55:40;;;;;;;1.75;1.17;;;;;;;-0.49;54.14;101394.66;5046664;28;20033;-56
2021/11/10 02:58:05;;;;;;;2.47;0.90;;;;;;;-0.41;53.94;101395.44;5051594;28;20041;-59
2021/11/10 03:00:31;;;;;;;3.53;0.90;;;;;;;-0.39;54.37;101390.19;5046642;28;20033;-60
2021/11/10 03:02:57;;;;;;;2.15;1.20;;;;;;;-0.42;54.40;101404.22;5037348;28;20544;-56
2021/11/10 03:05:24;;;;;;;2.13;1.30;;;;;;;-0.42;53.93;101403.38;5044837;28;20052;-58
2021/11/10 03:07:50;;;;;;;1.48;1.00;;;;;;;-0.40;54.23;101404.22;5057572;28;20071;-58
2021/11/10 03:10:15;;;;;;;2.33;0.75;;;;;;;-0.36;54.01;101403.31;5052462;28;20459;-59
2021/11/10 03:12:41;;;;;;;1.45;0.77;;;;;;;-0.33;53.82;101405.91;5033663;28;20021;-61
2021/11/10 03:15:08;;;;;;;1.65;0.80;;;;;;;-0.33;53.78;101412.06;5043880;28;20024;-60
2021/11/10 03:17:34;;;;;;;1.08;0.85;;;;;;;-0.33;53.81;101413.78;5050015;28;20113;-60
2021/11/10 03:20:00;;;;;;;1.00;0.75;;;;;;;-0.28;53.94;101412.00;5058817;28;20072;-56
2021/11/10 03:22:26;;;;;;;1.17;0.73;;;;;;;-0.26;53.63;101417.25;5063036;28;20029;-57
2021/11/10 03:24:51;;;;;;;1.55;1.00;;;;;;;-0.21;53.40;101416.31;5048640;28;20056;-59
2021/11/10 03:27:17;;;;;;;1.25;1.00;;;;;;;-0.28;53.44;101412.00;5064474;28;20021;-62
2021/11/10 03:29:45;;;;;;;1.90;0.93;;;;;;;-0.35;53.81;101410.31;5058432;28;20070;-59
2021/11/10 03:32:11;;;;;;;2.38;1.05;;;;;;;-0.28;53.74;101424.28;5057334;28;20036;-58
2021/11/10 03:34:36;;;;;;;3.28;1.02;;;;;;;-0.32;53.92;101424.31;5066185;28;20438;-60
2021/11/10 03:37:03;;;;;;;1.67;1.00;;;;;;;-0.32;53.74;101418.16;5053160;28;20024;-59
2021/11/10 03:39:29;;;;;;;2.78;1.23;;;;;;;-0.38;53.68;101407.72;5063264;28;20429;-58
2021/11/10 03:41:55;;;;;;;1.80;1.15;;;;;;;-0.35;54.31;101413.81;5055741;28;20115;-59
2021/11/10 03:44:21;;;;;;;2.28;1.17;;;;;;;-0.31;53.75;101409.38;5031892;28;20037;-60
2021/11/10 03:46:46;;;;;;;3.65;0.98;;;;;;;-0.52;53.94;101360.47;5063467;28;20032;-58
2021/11/10 03:49:14;;;;;;;1.83;1.15;;;;;;;-0.29;53.80;101399.72;5052217;28;20124;-61
2021/11/10 03:51:40;;;;;;;2.53;1.23;;;;;;;-0.32;53.78;101399.75;5040265;28;20029;-61
2021/11/10 03:54:06;;;;;;;2.80;1.08;;;;;;;-0.35;53.46;101402.41;5053246;28;20035;-58
2021/11/10 03:56:32;;;;;;;1.00;0.90;;;;;;;-0.38;53.80;101408.56;5053070;28;20526;-59
2021/11/10 03:58:58;;;;;;;1.20;0.88;;;;;;;-0.51;53.73;101397.28;5066289;28;20531;-60
2021/11/10 04:01:24;;;;;;;2.92;1.20;;;;;;;-0.54;54.00;101407.00;5037989;28;20055;-57
2021/11/10 04:03:50;;;;;;;1.15;1.00;;;;;;;-0.57;54.47;101412.28;5058802;28;20044;-59
2021/11/10 04:06:16;;;;;;;2.20;1.20;;;;;;;-0.68;54.51;101409.75;5062804;28;20044;-58
2021/11/10 04:08:41;;;;;;;3.45;1.50;;;;;;;-0.61;54.64;101422.81;5041236;28;20029;-63
2021/11/10 04:11:07;;;;;;;2.08;1.30;;;;;;;-0.56;54.47;101430.66;5043837;28;20064;-59
2021/11/10 04:13:33;;;;;;;3.63;1.20;;;;;;;-0.54;54.15;101423.63;5035022;28;20052;-60
2021/11/10 04:16:00;;;;;;;2.70;1.23;;;;;;;-0.53;54.37;101420.09;5051022;28;20028;-60
2021/11/10 04:18:32;;;;;;;1.52;1.10;;;;;;;-0.47;54.20;101429.72;5054321;28;20052;-60
2021/11/10 04:20:59;;;;;;;2.30;1.42;;;;;;;-0.50;54.14;101416.59;5065813;28;20480;-60
2021/11/10 04:23:26;;;;;;;2.50;1.38;;;;;;;-0.50;53.92;101419.22;5054402;28;20059;-60
2021/11/10 04:25:52;;;;;;;2.35;1.40;;;;;;;-0.64;54.58;101407.03;5057680;28;20098;-60
2021/11/10 04:28:17;;;;;;;4.47;1.25;;;;;;;-0.59;54.85;101422.81;5062555;28;20070;-58
2021/11/10 04:30:43;;;;;;;3.13;1.45;;;;;;;-0.58;54.44;101421.91;5052587;28;20086;-61
2021/11/10 04:33:09;;;;;;;4.47;1.30;;;;;;;-0.55;54.62;101416.63;5064453;28;20047;-60
2021/11/10 04:35:34;;;;;;;2.75;1.30;;;;;;;-0.54;54.45;101426.25;5041724;28;20063;-61
2021/11/10 04:38:00;;;;;;;2.97;1.20;;;;;;;-0.45;54.50;101434.09;5049443;28;20029;-61
2021/11/10 04:40:26;;;;;;;2.95;1.48;;;;;;;-0.42;54.44;101440.22;5054839;28;20036;-63
2021/11/10 04:42:51;;;;;;;5.22;1.52;;;;;;;-0.45;54.58;101434.09;5065411;28;20029;-61
2021/11/10 04:45:24;;;;;;;2.47;1.40;;;;;;;-0.37;54.56;101427.88;5057759;28;20036;-62
2021/11/10 04:47:50;;;;;;;3.35;1.50;;;;;;;-0.39;54.44;101417.34;5060846;28;20441;-59
2021/11/10 04:50:15;;;;;;;2.00;1.50;;;;;;;-0.33;54.40;101424.31;5042908;28;20040;-60
2021/11/10 04:52:41;;;;;;;1.55;1.40;;;;;;;-0.38;54.50;101426.13;5066372;28;20033;-55
2021/11/10 04:55:07;;;;;;;1.67;1.20;;;;;;;-0.38;54.92;101429.63;5041240;28;20035;-56
2021/11/10 04:57:33;;;;;;;4.05;1.88;;;;;;;-0.41;54.86;101423.53;5064811;28;20468;-59
2021/11/10 04:59:59;;;;;;;4.90;1.58;;;;;;;-0.41;54.86;101431.44;5062113;28;20483;-60
2021/11/10 05:02:25;;;;;;;2.92;1.67;;;;;;;-0.66;55.15;101390.41;5057962;28;20484;-59
2021/11/10 05:04:51;;;;;;;2.38;1.70;;;;;;;-0.36;54.99;101443.66;5069027;28;20032;-61
2021/11/10 05:07:18;;;;;;;2.05;1.60;;;;;;;-0.36;54.84;101432.25;5055797;28;20025;-58
2021/11/10 05:09:44;;;;;;;5.93;1.90;;;;;;;-0.22;54.67;101443.53;5063655;28;20052;-59
2021/11/10 05:12:09;;;;;;;3.50;1.80;;;;;;;-0.10;54.27;101454.81;5064956;28;20472;-59
2021/11/10 05:14:35;;;;;;;5.78;1.80;;;;;;;0.01;54.24;101446.81;5042076;28;20115;-58
2021/11/10 05:17:00;;;;;;;3.10;1.65;;;;;;;0.09;53.74;101451.13;5046448;28;20425;-61
2021/11/10 05:19:26;;;;;;;3.83;1.60;;;;;;;0.20;52.92;101452.75;5052360;28;20124;-60
2021/11/10 05:21:51;;;;;;;2.88;1.70;;;;;;;0.29;53.22;101468.47;5039861;28;20465;-60
2021/11/10 05:24:17;;;;;;;3.72;1.35;;;;;;;0.34;53.19;101461.38;5040969;28;20458;-59
2021/11/10 05:26:43;;;;;;;1.65;1.23;;;;;;;0.37;52.86;101460.47;5065760;28;20042;-62
2021/11/10 05:29:09;;;;;;;3.42;1.63;;;;;;;0.42;52.90;101463.91;5043944;28;20029;-61
2021/11/10 05:31:35;;;;;;;3.22;1.58;;;;;;;0.48;52.66;101455.94;5064282;28;20491;-61
2021/11/10 05:34:03;;;;;;;2.58;1.30;;;;;;;0.55;52.46;101462.00;5055752;28;20039;-59
2021/11/10 05:36:29;;;;;;;4.82;1.30;;;;;;;0.30;52.50;101406.97;5058819;28;20031;-59
2021/11/10 05:38:55;;;;;;;4.60;1.50;;;;;;;0.51;51.99;101413.72;5054510;28;20037;-57
2021/11/10 05:41:21;;;;;;;4.60;1.60;;;;;;;0.96;51.72;101455.28;5040031;28;20016;-59
2021/11/10 05:43:47;;;;;;;1.80;1.30;;;;;;;1.20;51.00;101454.97;5046880;28;20058;-60
2021/11/10 05:46:12;;;;;;;1.33;1.23;;;;;;;2.51;48.63;101445.59;5032982;28;20037;-60
2021/11/10 05:48:38;;;;;;;3.25;1.33;;;;;;;5.39;42.38;101441.47;5062658;28;20107;-59
2021/11/10 05:51:04;;;;;;;5.57;1.20;;;;;;;8.30;36.25;101396.47;5054822;28;20028;-60
2021/11/10 05:53:30;;;;;;;3.20;1.13;;;;;;;11.26;31.14;101425.94;5046514;28;20078;-61
2021/11/10 05:55:57;;;;;;;3.95;0.90;;;;;;;12.61;29.00;101425.06;5043861;28;20032;-60
2021/11/10 05:58:24;;;;;;;2.30;0.88;;;;;;;12.10;28.87;101399.56;5057420;28;20036;-61
2021/11/10 06:00:51;;;;;;;1.40;0.80;;;;;;;12.04;28.96;101434.81;5055983;28;20092;-62
2021/11/10 06:03:17;;;;;;;1.90;0.75;;;;;;;11.27;29.66;101438.38;5056113;28;20107;-59
2021/11/10 06:05:43;;;;;;;0.82;0.80;;;;;;;10.39;30.69;101438.75;5061360;28;20029;-61
2021/11/10 06:08:09;;;;;;;3.35;1.20;;;;;;;9.32;32.66;101445.09;5063759;28;20106;-60
2021/11/10 06:10:35;;;;;;;3.47;1.02;;;;;;;8.56;33.62;101439.81;5055291;28;20061;-60
2021/11/10 06:13:00;;;;;;;1.15;0.82;;;;;;;8.42;33.72;101441.25;5047749;28;20028;-58
2021/11/10 06:15:26;;;;;;;4.22;0.98;;;;;;;8.00;34.04;101404.94;5042579;28;20028;-59
2021/11/10 06:17:52;;;;;;;2.92;0.93;;;;;;;8.07;34.18;101427.72;5044852;28;20025;-61
2021/11/10 06:20:17;;;;;;;3.47;1.15;;;;;;;8.07;34.06;101437.50;5042669;28;20470;-59
2021/11/10 06:22:44;;;;;;;2.10;1.35;;;;;;;8.42;34.25;101446.59;5043666;28;20048;-64
2021/11/10 06:25:10;;;;;;;2.58;1.25;;;;;;;8.18;33.64;101414.75;5046682;28;20446;-62
2021/11/10 06:27:37;;;;;;;2.05;1.20;;;;;;;7.84;34.49;101439.41;5041426;28;20037;-56
2021/11/10 06:30:04;;;;;;;3.40;1.17;;;;;;;6.97;35.74;101416.31;5043772;28;20492;-57
2021/11/10 06:32:30;;;;;;;4.55;1.63;;;;;;;6.35;37.07;101451.47;5044008;28;20025;-60
2021/11/10 06:34:56;;;;;;;4.15;1.60;;;;;;;5.59;38.21;101444.34;5046581;28;20033;-59
2021/11/10 06:37:21;;;;;;;3.83;1.38;;;;;;;5.02;39.89;101452.34;5044385;28;20374;-62
2021/11/10 06:39:47;;;;;;;3.97;1.10;;;;;;;4.58;39.96;101454.56;5048352;28;20020;-61
2021/11/10 06:42:13;;;;;;;1.70;1.20;;;;;;;4.38;40.44;101413.59;5057111;28;20037;-61
2021/11/10 06:44:39;;;;;;;4.57;1.25;;;;;;;5.24;39.04;101448.16;5066047;28;20040;-61
2021/11/10 06:47:04;;;;;;;3.58;1.40;;;;;;;7.86;35.01;101441.06;5053531;28;20031;-60
2021/11/10 06:49:30;;;;;;;6.35;1.45;;;;;;;11.96;28.60;101423.66;5059865;28;20149;-60
2021/11/10 06:51:57;;;;;;;5.20;1.38;;;;;;;15.17;24.12;101407.56;5045625;28;20029;-60
2021/11/10 06:54:23;;;;;;;9.23;1.40;;;;;;;17.68;21.00;101436.50;5064701;28;20059;-55
2021/11/10 06:56:49;;;;;;;5.43;1.08;;;;;;;19.44;19.17;101430.97;5053024;28;20747;-64
2021/11/10 06:59:18;;;;;;;2.60;1.23;;;;;;;20.49;18.13;101425.59;5051384;28;20025;-66
2021/11/10 07:01:44;;;;;;;3.10;1.23;;;;;;;21.48;16.60;101420.41;5051109;28;20029;-64
2021/11/10 07:04:10;;;;;;;4.60;1.83;;;;;;;22.11;15.70;101427.72;5050572;28;20036;-69
2021/11/10 07:06:36;;;;;;;5.97;2.00;;;;;;;22.68;15.02;101427.19;5047838;28;20036;-63
2021/11/10 07:09:03;;;;;;;4.03;2.20;;;;;;;22.80;14.77;101400.44;5051027;28;20457;-64
2021/11/10 07:11:29;;;;;;;8.93;3.17;;;;;;;22.89;14.40;101418.56;5039721;28;20021;-64
2021/11/10 07:14:05;;;;;;;5.25;1.98;;;;;;;23.14;14.62;101436.84;5032133;28;20032;-68
2021/11/10 07:16:37;;;;;;;5.47;2.60;;;;;;;20.26;16.29;101430.56;5048938;28;20071;-62
2021/11/10 07:19:03;;;;;;;5.25;1.77;;;;;;;18.01;18.31;101427.34;5050737;28;20037;-63
2021/11/10 07:21:29;;;;;;;8.77;1.60;;;;;;;16.45;19.85;101416.72;5049363;28;20033;-62
2021/11/10 07:23:56;;;;;;;3.17;1.38;;;;;;;15.07;21.34;101428.97;5032714;28;20194;-64
2021/11/10 07:26:23;;;;;;;5.90;1.85;;;;;;;13.47;23.21;101431.16;5049322;28;20467;-63
2021/11/10 07:28:48;;;;;;;12.05;2.60;;;;;;;11.95;25.32;101428.16;5048987;28;20044;-63
2021/11/10 07:31:14;;;;;;;8.00;2.75;;;;;;;10.56;27.22;101437.88;5048999;28;20087;-67
2021/11/10 07:33:40;;;;;;;4.28;2.03;;;;;;;9.27;29.40;101439.09;5050743;28;20040;-64
2021/11/10 07:36:05;;;;;;;4.20;1.70;;;;;;;8.25;30.71;101446.53;5050483;28;20025;-63
2021/11/10 07:38:31;;;;;;;5.93;1.92;;;;;;;7.31;32.15;101429.13;5049547;28;20108;-63
2021/11/10 07:41:00;;;;;;;6.00;1.70;;;;;;;6.71;33.94;101440.38;5050394;28;20060;-65
2021/11/10 07:43:27;;;;;;;3.25;1.55;;;;;;;6.13;35.09;101428.31;5032597;28;20116;-64
2021/11/10 07:45:57;;;;;;;11.07;2.45;;;;;;;5.71;35.94;101431.53;5032967;28;20374;-64
2021/11/10 07:48:23;;;;;;;5.95;2.10;;;;;;;5.56;36.05;101439.13;5032942;28;20029;-64
2021/11/10 07:51:05;;;;;;;4.45;2.33;;;;;;;5.58;36.64;101447.03;5049217;28;20102;-64
2021/11/10 07:53:35;;;;;;;4.65;1.95;;;;;;;5.40;36.48;101414.00;5032939;28;20408;-65
2021/11/10 07:56:00;;;;;;;8.82;2.00;;;;;;;5.67;36.92;101437.88;5049891;28;20033;-63
2021/11/10 07:58:26;;;;;;;4.50;1.90;;;;;;;6.01;36.17;101431.41;5048652;28;20036;-65
2021/11/10 08:00:52;;;;;;;6.45;2.35;;;;;;;6.34;35.42;101438.22;5049292;28;20113;-65
2021/11/10 08:03:17;;;;;;;6.38;2.40;;;;;;;6.54;34.80;101438.34;5049515;28;20029;-65
2021/11/10 08:05:44;;;;;;;7.30;2.45;;;;;;;6.78;34.69;101446.31;5050872;28;20369;-64
2021/11/10 08:08:10;;;;;;;6.82;2.42;;;;;;;6.75;34.62;101449.13;5049689;28;20031;-64
2021/11/10 08:10:36;;;;;;;6.00;2.00;;;;;;;6.49;35.10;101450.97;5050470;28;20099;-64
2021/11/10 08:13:02;;;;;;;3.95;1.90;;;;;;;6.21;35.79;101451.09;5050539;28;20036;-64
2021/11/10 08:15:28;;;;;;;4.30;2.10;;;;;;;5.95;36.22;101440.47;5048930;28;20025;-64
2021/11/10 08:17:54;;;;;;;3.15;2.13;;;;;;;5.73;36.98;101446.53;5052767;28;20029;-65
2021/11/10 08:20:20;;;;;;;3.92;2.38;;;;;;;5.62;37.23;101450.47;5052647;28;20055;-62
2021/11/10 08:22:47;;;;;;;4.20;2.50;;;;;;;5.44;37.16;101418.28;5052561;28;20587;-65
2021/11/10 08:25:15;;;;;;;7.63;2.67;;;;;;;5.60;37.43;101445.19;5036638;28;20044;-64
2021/11/10 08:27:41;;;;;;;5.20;2.40;;;;;;;5.58;37.67;101450.56;5052794;28;20123;-62
2021/11/10 08:30:13;;;;;;;5.90;2.72;;;;;;;5.51;37.88;101445.50;5052368;28;20461;-66
2021/11/10 08:32:39;;;;;;;4.50;2.63;;;;;;;5.29;38.28;101457.69;5052831;28;20037;-64
2021/11/10 08:35:06;;;;;;;6.22;2.95;;;;;;;4.68;38.91;101381.75;5054023;28;20033;-65
2021/11/10 08:37:32;;;;;;;6.72;2.60;;;;;;;4.92;39.14;101442.06;5052274;28;20025;-64
2021/11/10 08:39:58;;;;;;;5.47;3.10;;;;;;;4.69;40.05;101435.66;5053532;28;20056;-65
2021/11/10 08:42:32;;;;;;;10.55;3.15;;;;;;;4.59;40.35;101449.22;5054023;28;20025;-66
2021/11/10 08:44:59;;;;;;;5.85;2.67;;;;;;;4.32;40.34;101416.41;5053850;28;20076;-63
2021/11/10 08:47:25;;;;;;;4.10;2.83;;;;;;;4.52;40.62;101438.81;5053768;28;20043;-65
2021/11/10 08:49:51;;;;;;;7.43;2.67;;;;;;;4.52;40.37;101441.47;5038933;28;20033;-63
2021/11/10 08:52:18;;;;;;;8.65;3.03;;;;;;;4.48;40.83;101427.47;5034119;28;20033;-63
2021/11/10 08:54:43;;;;;;;6.57;2.97;;;;;;;4.55;40.99;101441.38;5034395;28;20037;-65
2021/11/10 08:57:09;;;;;;;6.32;3.45;;;;;;;4.58;41.03;101431.56;5033937;28;20033;-63
2021/11/10 08:59:35;;;;;;;8.13;2.55;;;;;;;4.71;40.65;101436.53;5033356;28;20363;-65
2021/11/10 09:02:02;;;;;;;8.45;3.10;;;;;;;4.78;40.40;101430.09;5033771;28;20049;-65
2021/11/10 09:04:27;;;;;;;8.82;3.20;;;;;;;4.83;40.96;101433.47;5043853;28;20116;-65
2021/11/10 09:06:53;;;;;;;8.13;3.50;;;;;;;4.88;41.00;101436.84;5051602;28;20441;-64
2021/11/10 09:09:18;;;;;;;8.15;3.40;;;;;;;4.89;40.91;101432.44;5048993;28;20048;-63
2021/11/10 09:11:47;;;;;;;7.05;3.03;;;;;;;4.96;41.13;101449.88;5039428;28;20079;-63
2021/11/10 09:14:13;;;;;;;4.47;3.05;;;;;;;4.88;41.09;101449.25;5035066;28;20478;-64
2021/11/10 09:16:39;;;;;;;6.75;2.80;;;;;;;4.81;41.83;101445.03;5044988;28;20130;-65
2021/11/10 09:19:05;;;;;;;10.23;2.55;;;;;;;4.77;41.48;101438.09;5045255;28;20423;-64
2021/11/10 09:21:30;;;;;;;3.70;2.47;;;;;;;4.56;41.87;101409.53;5052460;28;20025;-64
2021/11/10 09:23:56;;;;;;;6.07;3.00;;;;;;;4.66;42.04;101426.03;5050922;28;20045;-67
2021/11/10 09:26:22;;;;;;;5.28;2.65;;;;;;;4.56;42.18;101437.81;5051551;28;20473;-66
2021/11/10 09:28:47;;;;;;;4.80;2.92;;;;;;;4.33;42.97;101434.03;5030722;28;20026;-66
2021/11/10 09:31:13;;;;;;;6.43;2.63;;;;;;;3.98;43.71;101423.56;5031236;28;20183;-69
2021/11/10 09:33:43;;;;;;;4.45;2.97;;;;;;;3.76;44.60;101428.53;5031602;28;20048;-70
2021/11/10 09:36:11;;;;;;;3.97;2.63;;;;;;;3.53;45.20;101432.66;5031746;28;20021;-64
2021/11/10 09:38:37;;;;;;;8.38;2.97;;;;;;;3.26;45.92;101421.84;5030636;28;20080;-65
2021/11/10 09:41:04;;;;;;;6.68;3.30;;;;;;;3.03;46.18;101425.06;5019689;28;20469;-66
2021/11/10 09:43:36;;;;;;;7.35;3.15;;;;;;;2.86;47.26;101430.69;5032529;28;20044;-65
2021/11/10 09:46:03;;;;;;;8.75;2.90;;;;;;;2.63;47.51;101428.59;5050295;28;20029;-69
2021/11/10 09:48:29;;;;;;;7.47;3.08;;;;;;;2.26;47.61;101394.06;5030527;28;20462;-68
2021/11/10 09:50:56;;;;;;;5.88;2.92;;;;;;;2.36;48.37;101438.84;5043737;28;20546;-64
2021/11/10 09:53:22;;;;;;;6.55;3.08;;;;;;;2.22;48.38;101420.63;5033574;28;20464;-66
2021/11/10 09:55:47;;;;;;;7.50;3.42;;;;;;;2.15;49.01;101417.22;5051019;28;20060;-64
2021/11/10 09:58:14;;;;;;;6.88;3.65;;;;;;;2.21;49.34;101422.38;5049245;28;20032;-64
2021/11/10 10:00:47;;;;;;;12.50;3.78;;;;;;;2.03;48.81;101380.47;5049176;28;20034;-63
2021/11/10 10:03:14;;;;;;;6.93;4.00;;;;;;;2.12;49.24;101402.28;5032949;28;20036;-65
2021/11/10 10:05:40;;;;;;;10.25;4.03;;;;;;;2.22;49.29;101412.69;5046539;28;20033;-66
2021/11/10 10:08:06;;;;;;;8.65;3.97;;;;;;;2.24;49.35;101411.75;5050810;28;20090;-66
2021/11/10 10:10:33;;;;;;;7.88;3.65;;;;;;;2.22;49.40;101399.47;5050327;28;20476;-65
2021/11/10 10:13:00;;;;;;;8.18;3.78;;;;;;;2.35;49.59;101415.94;5050352;28;20048;-65
2021/11/10 10:15:30;;;;;;;12.50;3.35;;;;;;;2.42;49.40;101420.19;5050587;28;20029;-66
2021/11/10 10:17:58;;;;;;;6.35;2.90;;;;;;;2.44;49.24;101411.34;5039360;28;20539;-65
2021/11/10 10:20:27;;;;;;;8.75;3.60;;;;;;;2.48;49.18;101398.06;5040199;28;20033;-64
2021/11/10 10:22:54;;;;;;;7.85;3.33;;;;;;;2.60;48.81;101402.22;5046690;28;20056;-66
2021/11/10 10:25:21;;;;;;;9.55;3.60;;;;;;;2.65;48.70;101403.84;5051453;28;20044;-64
2021/11/10 10:27:58;;;;;;;4.93;2.60;;;;;;;2.74;48.25;101397.47;5034826;28;20034;-63
2021/11/10 10:30:27;;;;;;;5.85;3.00;;;;;;;2.65;48.84;101376.53;5031443;28;20508;-62
2021/11/10 10:33:00;;;;;;;6.93;3.10;;;;;;;2.77;49.05;101394.75;5030832;28;20044;-62
2021/11/10 10:35:42;;;;;;;8.95;3.05;;;;;;;2.76;48.31;101387.72;5033389;28;20025;-65
2021/11/10 10:38:12;;;;;;;7.13;2.75;;;;;;;2.81;48.39;101395.56;5033789;28;20040;-69
2021/11/10 10:40:41;;;;;;;8.35;2.65;;;;;;;2.52;48.51;101341.56;5025006;28;20029;-66
2021/11/10 10:43:07;;;;;;;5.22;2.55;;;;;;;2.63;48.09;101357.19;5029432;28;20029;-64
2021/11/10 10:45:46;;;;;;;6.05;2.00;;;;;;;2.93;47.48;101400.59;5030990;28;20033;-63
2021/11/10 10:48:23;;;;;;;6.53;2.45;;;;;;;2.96;48.05;101384.63;5032657;28;20036;-63
2021/11/10 10:50:50;;;;;;;4.53;2.40;;;;;;;2.76;47.62;101360.41;5050427;28;20140;-64
2021/11/10 10:53:30;;;;;;;3.90;2.22;;;;;;;3.06;47.53;101384.41;5049367;28;20063;-67
2021/11/10 10:55:56;;;;;;;6.18;2.70;;;;;;;2.98;47.66;101377.53;5048431;28;20032;-62
2021/11/10 10:58:38;;;;;;;5.35;2.70;;;;;;;2.98;47.76;101361.66;5045752;28;20029;-64
2021/11/10 11:01:31;;;;;;;7.03;2.42;;;;;;;3.02;47.49;101367.75;5032723;28;20029;-64
2021/11/10 11:04:09;;;;;;;7.43;2.38;;;;;;;2.92;47.60;101350.34;5029726;28;20033;-63
2021/11/10 11:06:37;;;;;;;5.50;2.53;;;;;;;2.89;47.28;101350.41;5041023;28;20079;-64
2021/11/10 11:09:25;;;;;;;5.43;2.70;;;;;;;2.87;47.44;101351.31;5048375;28;20496;-63
2021/11/10 11:12:00;;;;;;;6.75;2.95;;;;;;;2.78;48.28;101343.63;5029744;28;20049;-62
2021/11/10 11:14:45;;;;;;;3.78;2.60;;;;;;;2.83;48.24;101357.59;5046273;28;20022;-63
2021/11/10 11:17:29;;;;;;;7.80;2.25;;;;;;;2.89;47.45;101351.25;5048575;28;20975;-61
2021/11/10 11:20:27;;;;;;;8.27;2.55;;;;;;;2.65;47.37;101313.94;5050272;28;20385;-62
2021/11/10 11:22:55;;;;;;;5.45;2.60;;;;;;;2.76;47.52;101341.91;5049524;28;20044;-66
2021/11/10 11:25:28;;;;;;;7.00;2.92;;;;;;;2.79;47.93;101344.47;5044962;28;20140;-64
2021/11/10 11:28:10;;;;;;;5.72;2.42;;;;;;;2.70;47.84;101330.56;5044459;28;20033;-64
2021/11/10 11:30:35;;;;;;;6.47;2.53;;;;;;;2.69;47.23;101323.53;5050770;28;20045;-64